Saint Helens, OR (97051)

12:43 AM PDT on October 31, 2014 (GMT -0700)
Arbor Hill, Sykes Rd. | Change Station
CLOSE
Current Station
Personal Weather Station
Location: St. Helens, OR
Elevation: 200 ft
Nearby Weather Stations

Elev 200 ft 45.85 °N, 122.85 °W | Updated 3 minutes ago

Rain
Rain
54.4 °F
Feels Like 54.4 °F
N
2.0
Wind Variable Wind from West
Gusts 2.0 mph

Today
High -- | Low -- °F
--% Chance of Precip.
Yesterday
High -- | Low -- °F
Precip. -- in
7:50 AM 5:59 PM
First Quarter, 52% visible
Pressure 29.76 in
Visibility 4.0 miles
Clouds Overcast 400 ft
Dew Point 52 °F
Humidity 93%
Rainfall 0.02 in
Snow Depth Not available.
UV 0 out of 12
Pollen .40 out of 12
Air Quality Not available.
Flu Activity Not available.
METAR KSPB 310653Z AUTO 13005KT 4SM -RA BR OVC004 14/13 A2976 RMK AO2 SLP077 P0006 T01390133

More Conditions Fewer Conditions

Pressure 29.76 in
Visibility 4.0 miles
Clouds Overcast 400 ft
Dew Point 52 °F
Humidity 93%
Rainfall 0.02 in
Snow Depth Not available.
UV 0 out of 12
Pollen .40 out of 12
Air Quality Not available.
Flu Activity Not available.
METAR KSPB 310653Z AUTO 13005KT 4SM -RA BR OVC004 14/13 A2976 RMK AO2 SLP077 P0006 T01390133

More Conditions Fewer Conditions

10-Day Weather Forecast

Almanac

Astronomy

Oct. 31, 2014 Rise Set
Actual Time
Civil Twilight
Nautical Twilight
Astronomical Twilight
Moon
Length of Visible Light
Length of Day
Tomorrow will be .
, % of the Moon is Illuminated

Today's Extremes

State Highs State Lows

Community

WunderPhotos

Upload Photos

1,766,573 photos uploaded!

WunderBlogs® & News

Nearby

Air Quality

  Air Quality AQ Index Pollutant
Not available.

Snow Depth

Station Depth Elevation

Earthquake Activity

City Distance Mag. Time & Date
Minimum magnitude displayed is 2.5.

Coastal Water Temperatures

Place Temperature

Nearby Weather Stations